Mia-s — V2EI7 — position and weather

sailwx.info

Track history (hours):
 
Tides and Currents Weather Stations Pressure Air Temp Water Temp Dewpoint Dewpoint Depression Visibility Wind Speed Wind Dir Waves Ship Positions

Mia-s

Last reported at 2016-Jul-24 11:30 UTC. Time now 2016-Jul-24 12:52 UTC.
Position N 25°24' E 119°20'.

Length 190 m; draft 6.9 m.

Type: Cargo ship. MMSI: 305442000.

Date/timePositionNaut miles runAvg speedWind from/ knotsBaromVisibWave heightAir tempDewpointWater temp
2016-Jul-24 11:30N 25°24' E 119°20'0 0.0
2016-Jul-24 04:24N 25°24' E 119°20'0 0.0
2016-Jul-24 02:18N 25°24' E 119°20'0 0.0
2016-Jul-24 01:30N 25°24' E 119°20'0 0.0
2016-Jul-23 01:30N 25°24' E 119°20'0 0.0
2016-Jul-23 00:18N 25°24' E 119°20'0 0.0
2016-Jul-22 23:30N 25°24' E 119°20'0 0.0
2016-Jul-22 22:30N 25°24' E 119°20'0 0.0
2016-Jul-22 21:24N 25°24' E 119°20'0 0.0
2016-Jul-22 16:06N 25°24' E 119°20'0 0.0
2016-Jul-22 12:12N 25°24' E 119°20'17 2.2
2016-Jul-22 04:29N 25°17' E 119°38'4 3.8
2016-Jul-22 03:31N 25°15' E 119°41'1 0.6
2016-Jul-22 01:25N 25°14' E 119°41'0 0.0
2016-Jul-21 17:07N 25°14' E 119°41'0 0.1
2016-Jul-21 14:07N 25°14' E 119°41'0 0.0
2016-Jul-21 09:31N 25°14' E 119°41'0 0.0
2016-Jul-21 03:25N 25°14' E 119°41'0 0.0
2016-Jul-20 11:19N 25°14' E 119°41'0 0.2
2016-Jul-20 10:27N 25°14' E 119°41'3 3.7
2016-Jul-20 09:33N 25°11' E 119°43'14513.2
2016-Jul-19 22:31N 22°46' E 119°52'1111.7
2016-Jul-19 21:33N 22°35' E 119°52'  
Track history (hours):
 
Tides and Currents Weather Stations Pressure Air Temp Water Temp Dewpoint Dewpoint Depression Visibility Wind Speed Wind Dir Waves Ship Positions

Mia-s

Last reported at 2016-Jul-24 11:30 UTC. Time now 2016-Jul-24 12:52 UTC.
Position N 25°24' E 119°20'.

Length 190 m; draft 6.9 m.

Type: Cargo ship. MMSI: 305442000.

Date/timePositionNaut miles runAvg speedWind from/ knotsBaromVisibWave heightAir tempDewpointWater temp
2016-Jul-24 11:30N 25°24' E 119°20'0 0.0
2016-Jul-24 04:24N 25°24' E 119°20'0 0.0
2016-Jul-24 02:18N 25°24' E 119°20'0 0.0
2016-Jul-24 01:30N 25°24' E 119°20'0 0.0
2016-Jul-23 01:30N 25°24' E 119°20'0 0.0
2016-Jul-23 00:18N 25°24' E 119°20'0 0.0
2016-Jul-22 23:30N 25°24' E 119°20'0 0.0
2016-Jul-22 22:30N 25°24' E 119°20'0 0.0
2016-Jul-22 21:24N 25°24' E 119°20'0 0.0
2016-Jul-22 16:06N 25°24' E 119°20'0 0.0
2016-Jul-22 12:12N 25°24' E 119°20'17 2.2
2016-Jul-22 04:29N 25°17' E 119°38'4 3.8
2016-Jul-22 03:31N 25°15' E 119°41'1 0.6
2016-Jul-22 01:25N 25°14' E 119°41'0 0.0
2016-Jul-21 17:07N 25°14' E 119°41'0 0.1
2016-Jul-21 14:07N 25°14' E 119°41'0 0.0
2016-Jul-21 09:31N 25°14' E 119°41'0 0.0
2016-Jul-21 03:25N 25°14' E 119°41'0 0.0
2016-Jul-20 11:19N 25°14' E 119°41'0 0.2
2016-Jul-20 10:27N 25°14' E 119°41'3 3.7
2016-Jul-20 09:33N 25°11' E 119°43'14513.2
2016-Jul-19 22:31N 22°46' E 119°52'1111.7
2016-Jul-19 21:33N 22°35' E 119°52'  

Dump ship's entire track history